createdAt,value
2023-05-13T00:02:02.301Z,12.32
2023-05-13T00:04:29.331Z,12.31
2023-05-13T00:06:56.255Z,12.31
2023-05-13T00:09:24.158Z,12.31
2023-05-13T00:11:51.032Z,12.31
2023-05-13T00:14:18.063Z,12.32
2023-05-13T00:16:45.386Z,12.31
2023-05-13T00:19:12.634Z,12.31
2023-05-13T00:21:39.858Z,12.30
2023-05-13T00:24:08.257Z,12.28
2023-05-13T00:26:35.357Z,12.25
2023-05-13T00:29:02.342Z,12.23
2023-05-13T00:31:30.127Z,12.21
2023-05-13T00:33:57.419Z,12.20
2023-05-13T00:36:24.436Z,12.21
2023-05-13T00:38:51.572Z,12.22
2023-05-13T00:41:18.713Z,12.23
2023-05-13T00:43:45.733Z,12.23
2023-05-13T00:46:13.157Z,12.23
2023-05-13T00:48:42.927Z,12.21
2023-05-13T00:51:09.966Z,12.20
2023-05-13T00:53:38.775Z,12.17
2023-05-13T00:56:06.285Z,12.15
2023-05-13T00:58:33.370Z,12.13
2023-05-13T01:01:17.748Z,12.11
2023-05-13T01:03:52.177Z,12.08
2023-05-13T01:06:24.176Z,12.06
2023-05-13T01:09:04.228Z,12.04
2023-05-13T01:11:38.155Z,12.06
2023-05-13T01:14:12.425Z,12.05
2023-05-13T01:16:50.521Z,12.07
2023-05-13T01:19:36.856Z,12.08
2023-05-13T01:22:03.933Z,12.08
2023-05-13T01:24:30.837Z,12.08
2023-05-13T01:26:58.306Z,12.08
2023-05-13T01:29:25.690Z,12.09
2023-05-13T01:31:55.170Z,12.10
2023-05-13T01:34:23.956Z,12.10
2023-05-13T01:36:51.468Z,12.10
2023-05-13T01:39:21.373Z,12.09
2023-05-13T01:41:49.845Z,12.06
2023-05-13T01:44:18.010Z,11.99
2023-05-13T01:46:45.595Z,11.94
2023-05-13T01:49:15.485Z,11.90
2023-05-13T01:51:42.426Z,11.85
2023-05-13T01:54:09.793Z,11.82
2023-05-13T01:56:38.744Z,11.77
2023-05-13T01:59:05.818Z,11.76
2023-05-13T02:01:32.840Z,11.73
2023-05-13T02:04:00.804Z,11.73
2023-05-13T02:06:28.633Z,11.71
2023-05-13T02:08:56.076Z,11.70
2023-05-13T02:11:23.639Z,11.69
2023-05-13T02:13:50.792Z,11.68
2023-05-13T02:16:19.384Z,11.65
2023-05-13T02:18:46.553Z,11.65
2023-05-13T02:21:16.366Z,11.67
2023-05-13T02:23:43.980Z,11.69
2023-05-13T02:26:11.269Z,11.68
2023-05-13T02:28:38.488Z,11.67
2023-05-13T02:31:06.025Z,11.68
2023-05-13T02:33:36.223Z,11.70
2023-05-13T02:36:03.423Z,11.74
2023-05-13T02:38:49.309Z,11.78
2023-05-13T02:41:16.912Z,11.78
2023-05-13T02:43:43.915Z,11.80
2023-05-13T02:46:10.907Z,11.83
2023-05-13T02:48:37.811Z,11.85
2023-05-13T02:51:04.776Z,11.87
2023-05-13T02:53:32.286Z,11.88
2023-05-13T02:56:03.054Z,11.88
2023-05-13T02:58:30.024Z,11.91
2023-05-13T03:00:57.296Z,11.92
2023-05-13T03:03:25.304Z,11.92
2023-05-13T03:05:52.581Z,11.91
2023-05-13T03:08:19.628Z,11.93
2023-05-13T03:10:46.912Z,11.95
2023-05-13T03:13:14.026Z,11.96
2023-05-13T03:15:43.471Z,11.96
2023-05-13T03:18:11.510Z,11.97
2023-05-13T03:20:38.552Z,11.97
2023-05-13T03:23:05.813Z,11.97
2023-05-13T03:25:33.359Z,11.97
2023-05-13T03:28:00.550Z,11.97
2023-05-13T03:30:30.923Z,11.97
2023-05-13T03:33:05.014Z,11.97
2023-05-13T03:35:32.097Z,11.97
2023-05-13T03:37:59.251Z,11.98
2023-05-13T03:40:26.631Z,12.01
2023-05-13T03:42:54.274Z,12.04
2023-05-13T03:45:22.966Z,12.06
2023-05-13T03:47:52.369Z,12.08
2023-05-13T03:50:20.463Z,12.11
2023-05-13T03:52:47.888Z,12.12
2023-05-13T03:55:15.936Z,12.13
2023-05-13T03:57:43.520Z,12.14
2023-05-13T04:00:14.499Z,12.14
2023-05-13T04:02:44.437Z,12.15
2023-05-13T04:05:14.555Z,12.16
2023-05-13T04:07:42.053Z,12.18
2023-05-13T04:10:14.582Z,12.20
2023-05-13T04:12:44.975Z,12.23
2023-05-13T04:15:14.652Z,12.27
2023-05-13T04:17:44.095Z,12.32
2023-05-13T04:20:13.557Z,12.38
2023-05-13T04:22:40.562Z,12.44
2023-05-13T04:25:08.675Z,12.54
2023-05-13T04:27:36.051Z,12.64
2023-05-13T04:30:11.592Z,12.74
2023-05-13T04:32:40.187Z,12.85
2023-05-13T04:35:09.329Z,13.00
2023-05-13T04:37:46.890Z,13.20
2023-05-13T04:40:16.683Z,13.42
2023-05-13T04:42:43.944Z,13.65
2023-05-13T04:45:14.707Z,13.89
2023-05-13T04:47:42.330Z,14.12
2023-05-13T04:50:11.083Z,14.33
2023-05-13T04:52:38.991Z,14.51
2023-05-13T04:55:06.661Z,14.61
2023-05-13T04:57:33.801Z,14.69
2023-05-13T05:00:04.021Z,14.74
2023-05-13T05:02:33.215Z,14.79
2023-05-13T05:05:00.890Z,14.86
2023-05-13T05:07:28.184Z,14.99
2023-05-13T05:09:57.561Z,15.27
2023-05-13T05:12:26.037Z,15.69
2023-05-13T05:14:53.370Z,16.24
2023-05-13T05:17:21.199Z,16.77
2023-05-13T05:19:48.405Z,17.28
2023-05-13T05:22:15.758Z,17.77
2023-05-13T05:24:42.970Z,18.14
2023-05-13T05:27:10.058Z,18.73
2023-05-13T05:29:37.753Z,20.75
2023-05-13T05:32:05.442Z,23.15
2023-05-13T05:34:33.033Z,25.31
2023-05-13T05:37:00.514Z,27.22
2023-05-13T05:39:27.441Z,28.43
2023-05-13T05:41:56.182Z,29.76
2023-05-13T05:44:23.486Z,31.14
2023-05-13T05:46:52.794Z,32.02
2023-05-13T05:49:20.049Z,31.65
2023-05-13T05:51:48.993Z,31.99
2023-05-13T05:54:16.248Z,32.87
2023-05-13T05:56:43.119Z,33.86
2023-05-13T05:59:10.265Z,35.03
2023-05-13T06:01:37.558Z,36.18
2023-05-13T06:04:04.724Z,37.20
2023-05-13T06:06:32.427Z,37.96
2023-05-13T06:08:59.502Z,38.57
2023-05-13T06:11:27.786Z,39.26
2023-05-13T06:13:57.674Z,39.89
2023-05-13T06:16:24.782Z,40.54
2023-05-13T06:18:51.693Z,41.21
2023-05-13T06:21:19.068Z,41.83
2023-05-13T06:23:48.862Z,42.30
2023-05-13T06:26:15.699Z,42.82
2023-05-13T06:28:42.702Z,43.35
2023-05-13T06:31:09.675Z,43.61
2023-05-13T06:33:37.490Z,43.71
2023-05-13T06:36:04.933Z,43.86
2023-05-13T06:38:32.096Z,44.16
2023-05-13T06:41:00.028Z,44.38
2023-05-13T06:43:30.727Z,44.36
2023-05-13T06:45:59.855Z,44.32
2023-05-13T06:48:28.285Z,44.58
2023-05-13T06:50:55.529Z,44.89
2023-05-13T06:53:22.464Z,45.20
2023-05-13T06:55:50.094Z,45.28
2023-05-13T06:58:17.744Z,45.50
2023-05-13T07:00:46.862Z,45.60
2023-05-13T07:03:14.199Z,45.67
2023-05-13T07:05:41.353Z,45.76
2023-05-13T07:08:08.848Z,45.87
2023-05-13T07:10:37.136Z,46.02
2023-05-13T07:13:04.711Z,46.10
2023-05-13T07:15:31.559Z,46.05
2023-05-13T07:17:58.472Z,45.98
2023-05-13T07:20:26.769Z,45.97
2023-05-13T07:22:54.580Z,46.05
2023-05-13T07:25:21.713Z,45.82
2023-05-13T07:27:48.977Z,45.55
2023-05-13T07:30:17.218Z,45.67
2023-05-13T07:32:44.346Z,45.88
2023-05-13T07:35:12.834Z,45.96
2023-05-13T07:37:39.845Z,45.89
2023-05-13T07:40:08.876Z,45.93
2023-05-13T07:42:36.122Z,46.07
2023-05-13T07:45:03.327Z,46.14
2023-05-13T07:47:31.538Z,46.03
2023-05-13T07:49:59.036Z,45.78
2023-05-13T07:52:26.483Z,45.30
2023-05-13T07:54:53.565Z,44.65
2023-05-13T07:57:20.919Z,44.39
2023-05-13T07:59:48.082Z,44.48
2023-05-13T08:02:15.280Z,44.49
2023-05-13T08:04:43.093Z,44.43
2023-05-13T08:07:11.297Z,44.30
2023-05-13T08:09:38.166Z,44.18
2023-05-13T08:12:06.457Z,43.94
2023-05-13T08:14:33.402Z,43.67
2023-05-13T08:17:01.068Z,43.27
2023-05-13T08:19:28.354Z,42.96
2023-05-13T08:21:55.445Z,42.68
2023-05-13T08:24:22.350Z,42.42
2023-05-13T08:26:49.497Z,41.68
2023-05-13T08:29:16.430Z,41.18
2023-05-13T08:31:43.606Z,40.97
2023-05-13T08:34:11.258Z,40.77
2023-05-13T08:36:38.075Z,40.18
2023-05-13T08:39:05.359Z,39.66
2023-05-13T08:41:33.938Z,39.13
2023-05-13T08:44:01.970Z,38.26
2023-05-13T08:46:31.926Z,37.90
2023-05-13T08:49:00.041Z,37.35
2023-05-13T08:51:26.941Z,36.44
2023-05-13T08:53:54.782Z,35.51
2023-05-13T08:56:25.743Z,34.72
2023-05-13T08:58:53.075Z,34.29
2023-05-13T09:01:20.086Z,33.80
2023-05-13T09:03:57.818Z,33.23
2023-05-13T09:06:25.094Z,33.06
2023-05-13T09:08:52.146Z,33.15
2023-05-13T09:11:19.423Z,33.42
2023-05-13T09:13:46.914Z,33.70
2023-05-13T09:16:15.631Z,33.65
2023-05-13T09:18:44.831Z,32.79
2023-05-13T09:21:28.451Z,31.80
2023-05-13T09:24:08.680Z,31.45
2023-05-13T09:26:37.932Z,31.37
2023-05-13T09:29:22.833Z,30.74
2023-05-13T09:31:52.434Z,30.23
2023-05-13T09:34:27.702Z,30.45
2023-05-13T09:37:00.900Z,30.23
2023-05-13T09:39:28.082Z,30.06
2023-05-13T09:41:55.345Z,29.89
2023-05-13T09:44:22.874Z,29.79
2023-05-13T09:46:51.863Z,29.68
2023-05-13T09:49:19.171Z,29.24
2023-05-13T09:51:47.365Z,28.62
2023-05-13T09:54:14.206Z,27.65
2023-05-13T09:56:41.520Z,27.19
2023-05-13T09:59:08.497Z,26.76
2023-05-13T10:01:37.581Z,26.36
2023-05-13T10:04:06.354Z,25.92
2023-05-13T10:06:34.649Z,26.04
2023-05-13T10:09:04.220Z,26.40
2023-05-13T10:11:34.594Z,26.56
2023-05-13T10:14:06.160Z,26.57
2023-05-13T10:16:34.806Z,26.59
2023-05-13T10:19:02.509Z,26.27
2023-05-13T10:21:30.070Z,25.74
2023-05-13T10:23:59.507Z,25.69
2023-05-13T10:26:26.844Z,25.85
2023-05-13T10:28:55.365Z,26.07
2023-05-13T10:31:22.417Z,26.28
2023-05-13T10:33:49.251Z,26.32
2023-05-13T10:36:36.280Z,26.39
2023-05-13T10:39:08.082Z,26.31
2023-05-13T10:42:09.286Z,26.37
2023-05-13T10:44:36.631Z,26.54
2023-05-13T10:47:04.492Z,26.43
2023-05-13T10:49:37.265Z,26.37
2023-05-13T10:52:10.966Z,26.21
2023-05-13T10:54:42.170Z,25.74
2023-05-13T10:57:09.750Z,25.54
2023-05-13T10:59:38.957Z,25.27
2023-05-13T11:02:23.234Z,25.16
2023-05-13T11:05:02.059Z,25.14
2023-05-13T11:07:31.506Z,25.02
2023-05-13T11:09:58.614Z,24.93
2023-05-13T11:12:25.592Z,24.67
2023-05-13T11:14:56.608Z,24.51
2023-05-13T11:17:24.270Z,24.24
2023-05-13T11:19:53.454Z,23.97
2023-05-13T11:22:24.227Z,23.60
2023-05-13T11:25:08.384Z,23.23
2023-05-13T11:27:42.159Z,22.86
2023-05-13T11:30:23.137Z,22.58
2023-05-13T11:32:58.720Z,22.39
2023-05-13T11:35:28.195Z,22.23
2023-05-13T11:37:57.579Z,22.10
2023-05-13T11:40:28.140Z,21.99
2023-05-13T11:42:55.906Z,21.95
2023-05-13T11:45:24.395Z,22.04
2023-05-13T11:47:51.863Z,22.23
2023-05-13T11:50:23.089Z,22.31
2023-05-13T11:52:56.047Z,22.32
2023-05-13T11:55:29.866Z,22.27
2023-05-13T11:57:58.127Z,22.24
2023-05-13T12:00:29.096Z,22.19
2023-05-13T12:02:57.124Z,22.11
2023-05-13T12:05:25.200Z,22.09
2023-05-13T12:07:53.250Z,22.01
2023-05-13T12:10:20.518Z,21.97
2023-05-13T12:12:48.636Z,21.97
2023-05-13T12:15:17.834Z,21.96
2023-05-13T12:17:45.449Z,21.95
2023-05-13T12:20:15.468Z,22.06
2023-05-13T12:22:53.525Z,22.29
2023-05-13T12:25:45.205Z,22.69
2023-05-13T12:28:17.787Z,23.05
2023-05-13T12:30:50.509Z,23.31
2023-05-13T12:33:19.902Z,23.60
2023-05-13T12:35:49.432Z,23.77
2023-05-13T12:38:19.700Z,23.81
2023-05-13T12:40:47.103Z,23.89
2023-05-13T12:43:15.329Z,23.90
2023-05-13T12:45:45.181Z,23.92
2023-05-13T12:48:12.537Z,24.02
2023-05-13T12:50:39.399Z,24.23
2023-05-13T12:53:07.231Z,24.38
2023-05-13T12:55:37.077Z,24.37
2023-05-13T12:58:06.435Z,24.30
2023-05-13T13:00:33.829Z,24.21
2023-05-13T13:03:00.837Z,24.00
2023-05-13T13:05:27.981Z,23.95
2023-05-13T13:07:55.310Z,23.90
2023-05-13T13:10:22.232Z,23.61
2023-05-13T13:12:49.647Z,23.46
2023-05-13T13:15:16.776Z,23.41
2023-05-13T13:17:43.663Z,23.37
2023-05-13T13:20:11.469Z,23.44
2023-05-13T13:22:39.121Z,23.53
2023-05-13T13:25:06.891Z,23.47
2023-05-13T13:27:33.813Z,23.39
2023-05-13T13:30:01.332Z,23.41
2023-05-13T13:32:28.374Z,23.58
2023-05-13T13:34:55.226Z,23.69
2023-05-13T13:37:22.218Z,23.70
2023-05-13T13:39:49.045Z,23.61
2023-05-13T13:42:15.853Z,23.51
2023-05-13T13:44:43.049Z,23.45
2023-05-13T13:47:10.260Z,23.33
2023-05-13T13:49:37.537Z,23.23
2023-05-13T13:52:04.768Z,23.14
2023-05-13T13:54:31.695Z,23.00
2023-05-13T13:56:58.859Z,22.86
2023-05-13T13:59:25.927Z,22.64
2023-05-13T14:01:53.885Z,22.47
2023-05-13T14:04:26.323Z,22.30
2023-05-13T14:06:53.709Z,22.18
2023-05-13T14:09:20.876Z,22.11
2023-05-13T14:11:47.827Z,22.04
2023-05-13T14:14:14.863Z,22.05
2023-05-13T14:16:42.074Z,22.14
2023-05-13T14:19:09.037Z,22.28
2023-05-13T14:21:36.058Z,22.36
2023-05-13T14:24:03.135Z,22.41
2023-05-13T14:26:30.559Z,22.45
2023-05-13T14:28:57.652Z,22.55
2023-05-13T14:31:24.560Z,22.62
2023-05-13T14:33:51.651Z,22.66
2023-05-13T14:36:20.748Z,22.67
2023-05-13T14:38:47.691Z,22.64
2023-05-13T14:41:19.972Z,22.60
2023-05-13T14:43:47.576Z,22.57
2023-05-13T14:46:14.723Z,22.56
2023-05-13T14:48:42.021Z,22.52
2023-05-13T14:51:11.146Z,22.46
2023-05-13T14:53:38.425Z,22.38
2023-05-13T14:56:05.887Z,22.34
2023-05-13T14:58:33.075Z,22.32
2023-05-13T15:01:00.494Z,22.33
2023-05-13T15:03:27.895Z,22.36
2023-05-13T15:05:56.181Z,22.39
2023-05-13T15:08:23.722Z,22.41
2023-05-13T15:10:50.973Z,22.43
2023-05-13T15:13:18.940Z,22.45
2023-05-13T15:15:45.993Z,22.50
2023-05-13T15:18:12.936Z,22.55
2023-05-13T15:20:40.186Z,22.57
2023-05-13T15:23:07.286Z,22.54
2023-05-13T15:25:34.488Z,22.52
2023-05-13T15:28:01.547Z,22.53
2023-05-13T15:30:28.490Z,22.53
2023-05-13T15:32:55.412Z,22.52
2023-05-13T15:35:22.797Z,22.42
2023-05-13T15:37:49.856Z,22.22
2023-05-13T15:40:17.130Z,22.08
2023-05-13T15:42:44.718Z,21.92
2023-05-13T15:45:12.473Z,21.70
2023-05-13T15:47:40.831Z,21.41
2023-05-13T15:50:09.475Z,21.16
2023-05-13T15:52:36.562Z,20.91
2023-05-13T15:55:03.912Z,20.77
2023-05-13T15:57:31.151Z,20.69
2023-05-13T15:59:58.789Z,20.60
2023-05-13T16:02:25.669Z,20.48
2023-05-13T16:04:53.093Z,20.37
2023-05-13T16:07:19.937Z,20.27
2023-05-13T16:09:46.877Z,20.18
2023-05-13T16:12:14.057Z,20.13
2023-05-13T16:14:41.040Z,20.06
2023-05-13T16:17:08.331Z,20.03
2023-05-13T16:19:36.224Z,19.98
2023-05-13T16:22:33.617Z,19.94
2023-05-13T16:25:02.400Z,19.91
2023-05-13T16:27:29.863Z,19.88
2023-05-13T16:29:57.212Z,19.86
2023-05-13T16:32:24.748Z,19.85
2023-05-13T16:34:52.231Z,19.84
2023-05-13T16:37:19.231Z,19.85
2023-05-13T16:39:46.477Z,19.85
2023-05-13T16:42:13.823Z,19.84
2023-05-13T16:44:40.858Z,19.84
2023-05-13T16:47:09.671Z,19.83
2023-05-13T16:49:36.829Z,19.83
2023-05-13T16:52:03.677Z,19.80
2023-05-13T16:54:31.152Z,19.79
2023-05-13T16:56:58.273Z,19.78
2023-05-13T16:59:26.657Z,19.78
2023-05-13T17:01:54.524Z,19.78
2023-05-13T17:04:22.194Z,19.78
2023-05-13T17:06:49.740Z,19.77
2023-05-13T17:09:16.503Z,19.77
2023-05-13T17:11:43.673Z,19.77
2023-05-13T17:14:10.597Z,19.78
2023-05-13T17:16:38.767Z,19.80
2023-05-13T17:19:05.846Z,19.82
2023-05-13T17:21:32.736Z,19.84
2023-05-13T17:24:00.516Z,19.86
2023-05-13T17:26:27.867Z,19.87
2023-05-13T17:28:55.016Z,19.87
2023-05-13T17:31:22.147Z,19.85
2023-05-13T17:33:49.010Z,19.77
2023-05-13T17:36:16.119Z,19.61
2023-05-13T17:38:43.304Z,19.48
2023-05-13T17:41:10.566Z,19.33
2023-05-13T17:43:37.594Z,19.21
2023-05-13T17:46:05.069Z,19.10
2023-05-13T17:48:33.109Z,19.01
2023-05-13T17:51:00.480Z,18.90
2023-05-13T17:53:27.645Z,18.75
2023-05-13T17:55:54.860Z,18.67
2023-05-13T17:58:22.051Z,18.63
2023-05-13T18:00:49.847Z,18.60
2023-05-13T18:03:16.774Z,18.53
2023-05-13T18:05:43.781Z,18.40
2023-05-13T18:08:10.623Z,18.29
2023-05-13T18:10:37.472Z,18.23
2023-05-13T18:13:04.953Z,18.20
2023-05-13T18:15:32.294Z,18.15
2023-05-13T18:17:59.279Z,18.09
2023-05-13T18:20:26.718Z,18.05
2023-05-13T18:22:54.038Z,17.99
2023-05-13T18:25:21.058Z,17.95
2023-05-13T18:27:50.216Z,17.90
2023-05-13T18:30:18.558Z,17.85
2023-05-13T18:32:45.876Z,17.80
2023-05-13T18:35:13.295Z,17.76
2023-05-13T18:37:40.547Z,17.72
2023-05-13T18:40:09.439Z,17.67
2023-05-13T18:42:36.579Z,17.63
2023-05-13T18:45:03.753Z,17.57
2023-05-13T18:47:30.646Z,17.55
2023-05-13T18:49:57.879Z,17.53
2023-05-13T18:52:26.235Z,17.50
2023-05-13T18:54:53.513Z,17.47
2023-05-13T18:57:20.846Z,17.43
2023-05-13T18:59:48.196Z,17.40
2023-05-13T19:02:15.538Z,17.37
2023-05-13T19:04:42.783Z,17.34
2023-05-13T19:07:10.241Z,17.29
2023-05-13T19:09:37.107Z,17.25
2023-05-13T19:12:04.135Z,17.19
2023-05-13T19:14:31.123Z,17.14
2023-05-13T19:16:58.423Z,17.08
2023-05-13T19:19:25.752Z,17.02
2023-05-13T19:21:52.805Z,16.95
2023-05-13T19:24:19.769Z,16.88
2023-05-13T19:26:46.639Z,16.82
2023-05-13T19:29:13.677Z,16.76
2023-05-13T19:31:40.945Z,16.71
2023-05-13T19:34:07.971Z,16.65
2023-05-13T19:36:35.128Z,16.60
2023-05-13T19:39:02.188Z,16.56
2023-05-13T19:41:29.111Z,16.50
2023-05-13T19:43:56.775Z,16.46
2023-05-13T19:46:24.037Z,16.42
2023-05-13T19:48:51.232Z,16.39
2023-05-13T19:51:18.537Z,16.35
2023-05-13T19:53:45.677Z,16.31
2023-05-13T19:56:12.662Z,16.25
2023-05-13T19:58:39.779Z,16.22
2023-05-13T20:01:08.046Z,16.18
2023-05-13T20:03:35.030Z,16.13
2023-05-13T20:06:02.531Z,16.11
2023-05-13T20:08:31.580Z,16.07
2023-05-13T20:10:58.427Z,16.04
2023-05-13T20:13:26.260Z,16.01
2023-05-13T20:15:53.087Z,15.98
2023-05-13T20:18:20.308Z,15.96
2023-05-13T20:20:48.095Z,15.94
2023-05-13T20:23:15.120Z,15.91
2023-05-13T20:25:42.012Z,15.89
2023-05-13T20:28:09.282Z,15.86
2023-05-13T20:30:36.457Z,15.84
2023-05-13T20:33:04.159Z,15.81
2023-05-13T20:35:31.331Z,15.79
2023-05-13T20:37:58.886Z,15.77
2023-05-13T20:40:29.129Z,15.76
2023-05-13T20:42:56.533Z,15.73
2023-05-13T20:45:23.623Z,15.70
2023-05-13T20:47:51.279Z,15.66
2023-05-13T20:50:18.946Z,15.61
2023-05-13T20:52:45.809Z,15.57
2023-05-13T20:55:15.481Z,15.53
2023-05-13T20:57:44.294Z,15.48
2023-05-13T21:00:13.915Z,15.44
2023-05-13T21:02:41.604Z,15.40
2023-05-13T21:05:10.088Z,15.36
2023-05-13T21:07:37.776Z,15.33
2023-05-13T21:10:05.125Z,15.29
2023-05-13T21:12:32.410Z,15.25
2023-05-13T21:14:59.570Z,15.22
2023-05-13T21:17:26.750Z,15.19
2023-05-13T21:19:54.092Z,15.15
2023-05-13T21:22:21.828Z,15.12
2023-05-13T21:24:50.229Z,15.09
2023-05-13T21:27:17.357Z,15.08
2023-05-13T21:29:44.316Z,15.07
2023-05-13T21:32:12.082Z,15.06
2023-05-13T21:34:39.265Z,15.05
2023-05-13T21:37:08.640Z,15.04
2023-05-13T21:39:35.564Z,15.03
2023-05-13T21:42:03.448Z,15.02
2023-05-13T21:44:30.590Z,15.01
2023-05-13T21:46:57.480Z,15.01
2023-05-13T21:49:27.954Z,15.01
2023-05-13T21:51:55.056Z,15.01
2023-05-13T21:54:22.096Z,15.02
2023-05-13T21:56:49.608Z,15.03
2023-05-13T21:59:16.487Z,15.03
2023-05-13T22:01:43.608Z,15.03
2023-05-13T22:04:11.077Z,15.01
2023-05-13T22:06:38.138Z,14.98
2023-05-13T22:09:08.048Z,14.94
2023-05-13T22:11:35.278Z,14.93
2023-05-13T22:14:02.863Z,14.91
2023-05-13T22:16:30.002Z,14.90
2023-05-13T22:19:00.418Z,14.89
2023-05-13T22:21:27.670Z,14.89
2023-05-13T22:23:55.022Z,14.90
2023-05-13T22:26:22.482Z,14.90
2023-05-13T22:28:52.503Z,14.91
2023-05-13T22:31:19.576Z,14.91
2023-05-13T22:33:46.692Z,14.90
2023-05-13T22:36:13.856Z,14.89
2023-05-13T22:38:44.270Z,14.87
2023-05-13T22:41:12.212Z,14.87
2023-05-13T22:43:39.061Z,14.86
2023-05-13T22:46:06.477Z,14.87
2023-05-13T22:48:33.697Z,14.88
2023-05-13T22:51:00.514Z,14.88
2023-05-13T22:53:27.523Z,14.89
2023-05-13T22:55:55.041Z,14.89
2023-05-13T22:58:22.906Z,14.89
2023-05-13T23:00:51.289Z,14.88
2023-05-13T23:03:18.328Z,14.87
2023-05-13T23:05:45.585Z,14.85
2023-05-13T23:08:12.450Z,14.84
2023-05-13T23:10:39.697Z,14.82
2023-05-13T23:13:06.833Z,14.79
2023-05-13T23:15:33.903Z,14.76
2023-05-13T23:18:01.390Z,14.72
2023-05-13T23:20:28.385Z,14.67
2023-05-13T23:22:55.471Z,14.63
2023-05-13T23:25:22.684Z,14.57
2023-05-13T23:27:49.541Z,14.52
2023-05-13T23:30:18.289Z,14.46
2023-05-13T23:32:45.178Z,14.41
2023-05-13T23:35:13.579Z,14.35
2023-05-13T23:37:40.581Z,14.29
2023-05-13T23:40:10.146Z,14.24
2023-05-13T23:42:37.203Z,14.19
2023-05-13T23:45:04.214Z,14.14
2023-05-13T23:47:31.374Z,14.07
2023-05-13T23:49:58.375Z,14.03
2023-05-13T23:52:27.816Z,14.00
2023-05-13T23:54:55.246Z,13.96
2023-05-13T23:57:23.371Z,13.92
2023-05-13T23:59:51.105Z,13.86
